createdAt,value
2023-12-13T00:17:04.857Z,12.52
2023-12-13T00:20:10.293Z,7.20
2023-12-13T00:21:42.544Z,5.53
2023-12-13T00:23:14.875Z,8.23
2023-12-13T00:24:47.203Z,12.52
2023-12-13T00:26:20.414Z,12.45
2023-12-13T00:27:53.324Z,17.42
2023-12-13T00:29:25.610Z,16.80
2023-12-13T00:30:57.899Z,21.90
2023-12-13T00:34:02.935Z,15.85
2023-12-13T00:35:35.301Z,10.68
2023-12-13T00:37:07.626Z,7.32
2023-12-13T00:38:39.952Z,7.55
2023-12-13T00:40:12.835Z,8.55
2023-12-13T00:41:45.133Z,8.23
2023-12-13T00:43:17.375Z,10.02
2023-12-13T00:44:49.704Z,8.57
2023-12-13T00:46:24.384Z,6.32
2023-12-13T00:47:56.732Z,7.63
2023-12-13T00:49:29.321Z,7.82
2023-12-13T00:51:01.592Z,8.32
2023-12-13T00:52:33.969Z,9.43
2023-12-13T00:54:06.428Z,7.70
2023-12-13T00:55:38.744Z,8.15
2023-12-13T00:57:11.094Z,7.93
2023-12-13T00:58:47.304Z,8.93
2023-12-13T01:00:19.828Z,8.73
2023-12-13T01:01:52.161Z,7.82
2023-12-13T01:03:26.720Z,7.88
2023-12-13T01:04:59.060Z,7.43
2023-12-13T01:06:31.341Z,7.55
2023-12-13T01:08:04.417Z,6.72
2023-12-13T01:09:36.695Z,6.93
2023-12-13T01:11:10.307Z,7.47
2023-12-13T01:14:17.749Z,7.43
2023-12-13T01:15:52.927Z,8.18
2023-12-13T01:17:25.206Z,10.02
2023-12-13T01:18:57.439Z,8.52
2023-12-13T01:20:29.801Z,9.07
2023-12-13T01:22:02.104Z,9.73
2023-12-13T01:23:34.347Z,8.50
2023-12-13T01:25:08.129Z,8.05
2023-12-13T01:26:40.379Z,8.32
2023-12-13T01:28:12.838Z,7.43
2023-12-13T01:29:45.230Z,7.03
2023-12-13T01:31:18.226Z,6.78
2023-12-13T01:32:50.711Z,6.72
2023-12-13T01:34:23.098Z,6.53
2023-12-13T01:35:55.502Z,6.82
2023-12-13T01:37:29.184Z,6.03
2023-12-13T01:39:01.426Z,6.40
2023-12-13T01:40:33.740Z,6.28
2023-12-13T01:42:06.848Z,7.07
2023-12-13T01:43:39.226Z,8.00
2023-12-13T01:45:13.715Z,7.03
2023-12-13T01:46:47.526Z,6.15
2023-12-13T01:48:19.975Z,6.82
2023-12-13T01:49:52.374Z,8.40
2023-12-13T01:51:24.709Z,7.15
2023-12-13T01:52:57.061Z,6.90
2023-12-13T01:54:29.382Z,6.50
2023-12-13T01:56:01.837Z,7.72
2023-12-13T01:57:34.730Z,7.50
2023-12-13T01:59:07.105Z,7.85
2023-12-13T02:00:41.767Z,7.47
2023-12-13T02:02:14.086Z,8.18
2023-12-13T02:03:47.885Z,8.05
2023-12-13T02:05:21.021Z,8.10
2023-12-13T02:06:53.945Z,7.07
2023-12-13T02:08:26.206Z,7.75
2023-12-13T02:09:58.506Z,7.80
2023-12-13T02:11:31.105Z,6.78
2023-12-13T02:13:03.763Z,7.00
2023-12-13T02:14:36.063Z,6.77
2023-12-13T02:16:08.704Z,6.35
2023-12-13T02:17:54.073Z,6.45
2023-12-13T02:19:26.366Z,6.30
2023-12-13T02:20:58.671Z,7.03
2023-12-13T02:22:31.737Z,7.43
2023-12-13T02:24:05.598Z,6.95
2023-12-13T02:25:41.698Z,6.40
2023-12-13T02:27:14.190Z,6.75
2023-12-13T02:28:46.604Z,5.90
2023-12-13T02:30:19.000Z,6.40
2023-12-13T02:31:51.374Z,7.25
2023-12-13T02:33:31.271Z,8.90
2023-12-13T02:35:03.819Z,10.10
2023-12-13T02:36:36.119Z,7.53
2023-12-13T02:38:08.367Z,7.47
2023-12-13T02:39:40.655Z,6.75
2023-12-13T02:41:12.917Z,6.90
2023-12-13T02:42:45.533Z,6.82
2023-12-13T02:44:17.817Z,7.03
2023-12-13T02:45:50.171Z,11.02
2023-12-13T02:47:26.838Z,13.65
2023-12-13T02:49:00.073Z,6.68
2023-12-13T02:50:32.927Z,6.00
2023-12-13T02:52:06.612Z,6.45
2023-12-13T02:53:38.878Z,7.68
2023-12-13T02:55:11.525Z,9.15
2023-12-13T02:56:43.857Z,7.80
2023-12-13T02:58:16.362Z,8.88
2023-12-13T02:59:48.609Z,8.13
2023-12-13T03:01:21.001Z,8.63
2023-12-13T03:02:57.381Z,6.18
2023-12-13T03:04:29.741Z,7.78
2023-12-13T03:06:02.085Z,5.75
2023-12-13T03:07:34.619Z,5.75
2023-12-13T03:09:07.354Z,5.17
2023-12-13T03:10:39.709Z,5.75
2023-12-13T03:12:12.189Z,7.18
2023-12-13T03:13:44.569Z,8.02
2023-12-13T03:15:17.272Z,9.75
2023-12-13T03:16:49.687Z,11.52
2023-12-13T03:18:22.120Z,6.97
2023-12-13T03:19:57.495Z,7.43
2023-12-13T03:21:29.716Z,7.88
2023-12-13T03:23:04.827Z,8.45
2023-12-13T03:24:37.434Z,12.35
2023-12-13T03:26:09.900Z,9.38
2023-12-13T03:27:44.524Z,8.00
2023-12-13T03:29:16.811Z,8.02
2023-12-13T03:30:49.141Z,7.47
2023-12-13T03:32:21.482Z,13.90
2023-12-13T03:33:53.988Z,9.10
2023-12-13T03:35:26.265Z,11.80
2023-12-13T03:36:58.531Z,11.50
2023-12-13T03:38:30.869Z,16.23
2023-12-13T03:40:04.604Z,16.92
2023-12-13T03:41:36.836Z,20.30
2023-12-13T03:43:09.115Z,21.38
2023-12-13T03:44:41.470Z,26.08
2023-12-13T03:46:14.065Z,21.15
2023-12-13T03:47:46.618Z,14.67
2023-12-13T03:49:19.412Z,13.23
2023-12-13T03:50:51.721Z,13.47
2023-12-13T03:52:23.975Z,15.10
2023-12-13T03:53:56.227Z,14.38
2023-12-13T03:55:28.498Z,13.63
2023-12-13T03:57:00.965Z,11.02
2023-12-13T03:58:33.210Z,11.40
2023-12-13T04:00:08.404Z,10.75
2023-12-13T04:01:40.784Z,12.25
2023-12-13T04:03:13.150Z,12.50
2023-12-13T04:04:45.576Z,20.42
2023-12-13T04:06:17.927Z,20.35
2023-12-13T04:07:50.213Z,14.88
2023-12-13T04:09:23.281Z,10.02
2023-12-13T04:10:55.514Z,12.65
2023-12-13T04:12:27.777Z,12.57
2023-12-13T04:13:59.993Z,12.60
2023-12-13T04:15:32.639Z,18.42
2023-12-13T04:17:05.888Z,14.57
2023-12-13T04:18:39.321Z,12.43
2023-12-13T04:21:44.041Z,13.80
2023-12-13T04:23:16.332Z,11.65
2023-12-13T04:24:48.613Z,11.10
2023-12-13T04:26:20.860Z,11.80
2023-12-13T04:27:53.215Z,11.07
2023-12-13T04:29:25.431Z,13.10
2023-12-13T04:30:57.785Z,14.80
2023-12-13T04:32:30.213Z,12.13
2023-12-13T04:34:02.650Z,11.38
2023-12-13T04:35:35.656Z,13.18
2023-12-13T04:37:08.496Z,11.70
2023-12-13T04:38:40.794Z,12.38
2023-12-13T04:40:13.341Z,11.30
2023-12-13T04:41:45.897Z,15.40
2023-12-13T04:43:18.175Z,11.40
2023-12-13T04:44:51.178Z,9.98
2023-12-13T04:46:23.533Z,10.90
2023-12-13T04:47:56.595Z,12.13
2023-12-13T04:49:29.092Z,21.38
2023-12-13T04:51:01.502Z,26.60
2023-12-13T04:52:33.942Z,27.35
2023-12-13T04:54:06.612Z,16.65
2023-12-13T04:55:39.387Z,15.90
2023-12-13T04:57:11.693Z,13.32
2023-12-13T04:58:44.088Z,12.63
2023-12-13T05:00:16.792Z,14.00
2023-12-13T05:01:50.207Z,13.43
2023-12-13T05:03:22.602Z,24.73
2023-12-13T05:05:01.233Z,21.23
2023-12-13T05:06:33.664Z,20.48
2023-12-13T05:08:09.978Z,19.17
2023-12-13T05:09:42.273Z,18.60
2023-12-13T05:11:14.705Z,16.63
2023-12-13T05:12:47.014Z,15.48
2023-12-13T05:14:19.321Z,14.02
2023-12-13T05:15:51.678Z,17.13
2023-12-13T05:17:24.234Z,16.52
2023-12-13T05:18:56.664Z,17.15
2023-12-13T05:20:28.966Z,17.15
2023-12-13T05:22:01.151Z,18.83
2023-12-13T05:23:33.466Z,21.95
2023-12-13T05:25:06.149Z,19.35
2023-12-13T05:26:38.391Z,16.10
2023-12-13T05:28:11.228Z,17.67
2023-12-13T05:29:45.262Z,16.85
2023-12-13T05:31:35.719Z,16.33
2023-12-13T05:33:08.833Z,19.00
2023-12-13T05:34:41.131Z,21.38
2023-12-13T05:36:13.411Z,14.88
2023-12-13T05:37:45.795Z,16.08
2023-12-13T05:39:18.145Z,19.08
2023-12-13T05:40:51.178Z,17.38
2023-12-13T05:42:26.698Z,13.48
2023-12-13T05:43:59.133Z,11.60
2023-12-13T05:45:31.464Z,9.63
2023-12-13T05:47:03.858Z,7.63
2023-12-13T05:48:36.261Z,6.85
2023-12-13T05:50:09.092Z,6.57
2023-12-13T05:51:41.431Z,14.55
2023-12-13T05:53:14.114Z,13.13
2023-12-13T05:54:46.560Z,9.30
2023-12-13T05:56:18.791Z,11.95
2023-12-13T05:57:51.068Z,12.68
2023-12-13T05:59:23.486Z,11.45
2023-12-13T06:00:55.853Z,7.97
2023-12-13T06:02:28.277Z,5.50
2023-12-13T06:04:00.681Z,3.83
2023-12-13T06:05:33.182Z,4.38
2023-12-13T06:07:05.624Z,5.05
2023-12-13T06:08:37.913Z,4.20
2023-12-13T06:10:10.713Z,8.25
2023-12-13T06:11:42.986Z,10.80
2023-12-13T06:13:15.388Z,12.90
2023-12-13T06:14:47.667Z,11.65
2023-12-13T06:16:20.064Z,9.45
2023-12-13T06:17:52.395Z,10.27
2023-12-13T06:19:28.594Z,12.15
2023-12-13T06:21:00.889Z,14.50
2023-12-13T06:22:33.378Z,18.90
2023-12-13T06:24:06.014Z,21.40
2023-12-13T06:25:38.384Z,19.75
2023-12-13T06:27:10.755Z,19.40
2023-12-13T06:28:43.045Z,16.27
2023-12-13T06:30:15.551Z,11.20
2023-12-13T06:31:47.909Z,11.40
2023-12-13T06:33:20.544Z,17.40
2023-12-13T06:34:53.200Z,22.07
2023-12-13T06:36:25.620Z,19.13
2023-12-13T06:37:57.909Z,20.08
2023-12-13T06:39:32.644Z,21.77
2023-12-13T06:41:05.072Z,26.45
2023-12-13T06:42:37.428Z,22.83
2023-12-13T06:44:09.747Z,21.92
2023-12-13T06:45:42.034Z,20.73
2023-12-13T06:47:14.333Z,17.92
2023-12-13T06:48:50.698Z,18.23
2023-12-13T06:50:23.038Z,19.85
2023-12-13T06:51:55.344Z,16.80
2023-12-13T06:53:28.024Z,13.95
2023-12-13T06:55:00.314Z,14.50
2023-12-13T06:56:32.583Z,12.07
2023-12-13T06:58:04.957Z,22.63
2023-12-13T06:59:37.254Z,24.02
2023-12-13T07:01:10.200Z,26.55
2023-12-13T07:02:42.488Z,17.80
2023-12-13T07:04:15.305Z,20.08
2023-12-13T07:05:49.271Z,18.95
2023-12-13T07:07:21.649Z,21.02
2023-12-13T07:08:53.886Z,16.55
2023-12-13T07:10:28.542Z,16.38
2023-12-13T07:12:01.160Z,13.90
2023-12-13T07:13:33.521Z,13.45
2023-12-13T07:15:07.950Z,13.93
2023-12-13T07:16:40.643Z,19.92
2023-12-13T07:18:13.090Z,18.92
2023-12-13T07:19:45.449Z,19.52
2023-12-13T07:21:17.723Z,27.23
2023-12-13T07:22:53.187Z,24.10
2023-12-13T07:24:25.553Z,23.25
2023-12-13T07:25:57.982Z,15.10
2023-12-13T07:27:30.532Z,14.73
2023-12-13T07:29:03.179Z,18.33
2023-12-13T07:30:35.961Z,24.20
2023-12-13T07:32:09.952Z,32.17
2023-12-13T07:33:43.499Z,24.85
2023-12-13T07:35:16.300Z,24.45
2023-12-13T07:36:50.718Z,26.45
2023-12-13T07:38:22.969Z,22.95
2023-12-13T07:39:55.192Z,35.60
2023-12-13T07:41:27.542Z,43.78
2023-12-13T07:42:59.988Z,43.08
2023-12-13T07:44:34.736Z,40.38
2023-12-13T07:46:07.693Z,33.42
2023-12-13T07:47:40.009Z,23.95
2023-12-13T07:49:12.430Z,20.58
2023-12-13T07:50:44.872Z,22.33
2023-12-13T07:52:21.954Z,20.58
2023-12-13T07:53:54.328Z,20.65
2023-12-13T07:55:26.713Z,21.00
2023-12-13T07:56:59.049Z,21.60
2023-12-13T07:58:34.838Z,23.92
2023-12-13T08:00:07.643Z,21.80
2023-12-13T08:01:39.964Z,21.52
2023-12-13T08:03:12.328Z,22.08
2023-12-13T08:04:44.735Z,23.30
2023-12-13T08:06:21.193Z,22.20
2023-12-13T08:07:53.509Z,25.63
2023-12-13T08:09:25.970Z,25.30
2023-12-13T08:10:59.165Z,21.42
2023-12-13T08:12:31.806Z,22.48
2023-12-13T08:14:04.956Z,25.52
2023-12-13T08:15:37.446Z,24.05
2023-12-13T08:17:11.680Z,23.77
2023-12-13T08:18:44.132Z,13.85
2023-12-13T08:20:16.615Z,15.95
2023-12-13T08:21:48.932Z,16.15
2023-12-13T08:23:21.349Z,17.42
2023-12-13T08:24:53.970Z,16.38
2023-12-13T08:26:29.046Z,14.52
2023-12-13T08:28:01.585Z,14.20
2023-12-13T08:29:33.906Z,14.93
2023-12-13T08:31:16.985Z,11.88
2023-12-13T08:32:53.620Z,9.98
2023-12-13T08:34:25.946Z,8.85
2023-12-13T08:35:58.374Z,6.60
2023-12-13T08:37:31.900Z,6.60
2023-12-13T08:39:05.341Z,6.53
2023-12-13T08:40:37.683Z,5.10
2023-12-13T08:42:11.013Z,4.72
2023-12-13T08:43:43.516Z,4.28
2023-12-13T08:45:16.106Z,4.20
2023-12-13T08:46:49.013Z,4.03
2023-12-13T08:48:21.493Z,3.83
2023-12-13T08:49:56.501Z,3.87
2023-12-13T08:51:28.791Z,4.15
2023-12-13T08:53:01.418Z,4.05
2023-12-13T08:54:34.807Z,3.92
2023-12-13T08:56:07.831Z,3.72
2023-12-13T08:57:40.221Z,4.63
2023-12-13T08:59:12.514Z,3.72
2023-12-13T09:00:44.980Z,4.35
2023-12-13T09:02:17.782Z,3.72
2023-12-13T09:03:50.438Z,3.50
2023-12-13T09:05:22.897Z,4.00
2023-12-13T09:06:55.304Z,3.95
2023-12-13T09:08:27.670Z,3.95
2023-12-13T09:09:59.884Z,3.88
2023-12-13T09:11:32.830Z,4.75
2023-12-13T09:13:05.736Z,4.78
2023-12-13T09:14:38.088Z,4.13
2023-12-13T11:13:51.472Z,22.35
2023-12-13T11:15:23.887Z,12.10
2023-12-13T11:36:12.368Z,3.90
2023-12-13T11:37:50.106Z,7.00
2023-12-13T11:39:22.373Z,6.90
2023-12-13T11:40:54.596Z,7.10
2023-12-13T11:42:26.874Z,7.13
2023-12-13T11:43:59.250Z,4.95
2023-12-13T11:45:31.507Z,4.40
2023-12-13T11:47:05.711Z,4.43
2023-12-13T11:48:38.562Z,4.38
2023-12-13T11:50:12.282Z,4.68
2023-12-13T11:51:44.668Z,3.90
2023-12-13T11:53:17.414Z,6.93
2023-12-13T11:54:51.126Z,8.38
2023-12-13T11:56:24.155Z,12.25
2023-12-13T11:57:59.993Z,13.60
2023-12-13T11:59:32.320Z,19.52
2023-12-13T12:01:05.294Z,19.65
2023-12-13T12:02:37.635Z,22.75
2023-12-13T12:04:10.790Z,24.75
2023-12-13T12:05:44.174Z,19.80
2023-12-13T12:07:18.453Z,27.35
2023-12-13T12:08:50.844Z,29.00
2023-12-13T12:10:23.716Z,33.97
2023-12-13T12:11:56.738Z,30.17
2023-12-13T12:13:29.024Z,31.13
2023-12-13T12:15:01.519Z,32.95
2023-12-13T12:16:33.929Z,23.63
2023-12-13T12:18:06.442Z,30.52
2023-12-13T12:19:40.091Z,18.02
2023-12-13T12:21:12.841Z,7.95
2023-12-13T12:22:45.385Z,11.48
2023-12-13T12:24:17.671Z,11.00
2023-12-13T12:25:54.827Z,5.65
2023-12-13T12:27:28.508Z,10.05
2023-12-13T12:29:00.912Z,5.65
2023-12-13T12:30:33.419Z,4.03
2023-12-13T12:32:13.208Z,4.00
2023-12-13T12:33:56.919Z,3.97
2023-12-13T12:35:29.487Z,6.93
2023-12-13T12:37:01.689Z,3.83
2023-12-13T12:38:34.015Z,7.25
2023-12-13T12:40:07.780Z,6.22
2023-12-13T12:41:40.076Z,6.97
2023-12-13T12:43:14.787Z,5.18
2023-12-13T12:44:49.641Z,7.07
2023-12-13T12:46:22.815Z,7.80
2023-12-13T12:47:55.282Z,6.28
2023-12-13T16:05:25.369Z,18.42
2023-12-13T16:07:00.318Z,17.33
2023-12-13T16:08:32.773Z,18.30
2023-12-13T16:10:05.287Z,17.73
2023-12-13T16:11:37.523Z,19.38
2023-12-13T16:13:10.004Z,16.52
2023-12-13T16:14:42.343Z,17.33
2023-12-13T16:16:14.780Z,17.35
2023-12-13T16:17:47.163Z,16.58
2023-12-13T16:19:19.653Z,17.33
2023-12-13T16:20:51.866Z,15.32
2023-12-13T16:22:24.162Z,16.80
2023-12-13T16:23:56.441Z,16.88
2023-12-13T16:25:28.748Z,15.63
2023-12-13T16:27:01.241Z,15.77
2023-12-13T16:28:33.677Z,16.05
2023-12-13T16:30:07.262Z,15.68
2023-12-13T16:31:39.645Z,15.45
2023-12-13T16:33:13.982Z,17.10
2023-12-13T16:34:46.397Z,15.57
2023-12-13T16:36:22.392Z,17.38
2023-12-13T16:37:54.638Z,16.67
2023-12-13T16:39:26.913Z,16.48
2023-12-13T16:40:59.345Z,15.40
2023-12-13T16:42:31.862Z,16.97
2023-12-13T16:44:04.556Z,16.15
2023-12-13T16:45:38.317Z,15.70
2023-12-13T16:47:14.438Z,15.63
2023-12-13T16:48:49.399Z,15.48
2023-12-13T16:50:22.333Z,15.77
2023-12-13T16:51:55.244Z,14.80
2023-12-13T16:53:27.546Z,14.77
2023-12-13T16:55:00.219Z,14.30
2023-12-13T16:56:32.536Z,15.55
2023-12-13T16:58:05.630Z,15.02
2023-12-13T16:59:38.035Z,15.75
2023-12-13T17:01:10.462Z,14.52
2023-12-13T17:02:45.417Z,14.77
2023-12-13T17:04:18.285Z,15.50
2023-12-13T17:05:50.591Z,15.18
2023-12-13T17:07:27.125Z,15.05
2023-12-13T17:09:01.336Z,14.30
2023-12-13T17:10:35.238Z,16.42
2023-12-13T17:12:07.698Z,16.50
2023-12-13T17:13:42.569Z,15.45
2023-12-13T17:15:15.215Z,15.90
2023-12-13T17:16:48.060Z,16.33
2023-12-13T17:18:21.019Z,14.80
2023-12-13T17:19:54.229Z,16.13
2023-12-13T17:21:26.743Z,15.43
2023-12-13T17:22:59.064Z,15.27
2023-12-13T17:24:33.110Z,15.45
2023-12-13T17:26:05.626Z,16.00
2023-12-13T17:27:39.947Z,15.63
2023-12-13T17:29:19.775Z,15.98
2023-12-13T17:30:54.979Z,15.40
2023-12-13T17:32:28.931Z,16.30
2023-12-13T17:34:04.562Z,16.55
2023-12-13T17:35:36.858Z,13.75
2023-12-13T17:37:10.469Z,15.20
2023-12-13T17:38:42.778Z,15.45
2023-12-13T17:40:15.280Z,15.38
2023-12-13T17:41:47.530Z,17.60
2023-12-13T17:43:19.889Z,17.33
2023-12-13T17:44:52.282Z,15.63
2023-12-13T17:46:25.351Z,15.90
2023-12-13T17:47:57.616Z,17.10
2023-12-13T17:49:35.947Z,16.58
2023-12-13T17:51:09.138Z,16.00
2023-12-13T17:52:41.437Z,16.52
2023-12-13T17:54:13.790Z,16.60
2023-12-13T17:55:46.199Z,17.95
2023-12-13T17:57:18.442Z,15.48
2023-12-13T17:58:50.827Z,17.20
2023-12-13T18:00:23.528Z,19.30
2023-12-13T18:01:55.904Z,21.73
2023-12-13T18:03:28.119Z,16.20
2023-12-13T18:05:04.487Z,15.25
2023-12-13T18:06:36.897Z,16.50
2023-12-13T18:08:09.572Z,14.43
2023-12-13T18:09:43.883Z,14.35
2023-12-13T18:11:16.200Z,15.07
2023-12-13T18:12:48.984Z,15.75
2023-12-13T18:14:21.381Z,16.65
2023-12-13T18:15:53.798Z,18.77
2023-12-13T18:17:26.118Z,17.60
2023-12-13T18:18:59.567Z,23.50
2023-12-13T18:22:05.345Z,29.80
2023-12-13T18:23:37.661Z,17.92
2023-12-13T18:25:10.365Z,18.00
2023-12-13T18:26:42.752Z,16.67
2023-12-13T18:28:15.097Z,18.02
2023-12-13T18:29:47.315Z,17.30
2023-12-13T18:31:19.723Z,19.00
2023-12-13T18:32:52.063Z,18.55
2023-12-13T18:34:24.481Z,16.13
2023-12-13T18:35:59.032Z,16.30
2023-12-13T18:37:31.708Z,15.85
2023-12-13T18:39:04.622Z,14.20
2023-12-13T18:40:37.120Z,15.10
2023-12-13T18:42:09.535Z,15.70
2023-12-13T18:43:41.970Z,14.13
2023-12-13T18:45:17.240Z,15.85
2023-12-13T18:46:49.932Z,15.20
2023-12-13T18:48:25.363Z,14.27
2023-12-13T18:49:57.858Z,17.45
2023-12-13T18:51:30.308Z,15.15
2023-12-13T18:53:02.736Z,31.83
2023-12-13T18:54:35.262Z,18.13
2023-12-13T18:56:08.169Z,14.90
2023-12-13T18:57:41.319Z,16.88
2023-12-13T18:59:13.827Z,15.40
2023-12-13T19:00:47.048Z,15.50
2023-12-13T19:02:19.789Z,17.42
2023-12-13T19:03:52.471Z,17.85
2023-12-13T19:05:24.924Z,16.17
2023-12-13T19:06:57.337Z,28.73
2023-12-13T19:08:29.648Z,29.40
2023-12-13T19:10:02.808Z,27.77
2023-12-13T19:11:35.438Z,15.65
2023-12-13T19:13:07.741Z,15.23
2023-12-13T19:14:40.027Z,16.65
2023-12-13T19:16:12.288Z,21.35
2023-12-13T19:17:44.702Z,24.90
2023-12-13T19:19:23.159Z,24.88
2023-12-13T19:20:57.413Z,21.60
2023-12-13T19:22:29.767Z,18.55
2023-12-13T19:24:02.140Z,20.13
2023-12-13T19:25:37.713Z,20.77
2023-12-13T19:27:09.933Z,20.15
2023-12-13T19:28:42.771Z,21.80
2023-12-13T19:30:15.391Z,23.27
2023-12-13T19:31:49.068Z,18.95
2023-12-13T19:33:21.452Z,21.50
2023-12-13T19:34:54.422Z,23.88
2023-12-13T19:36:27.493Z,24.92
2023-12-13T19:37:59.815Z,20.65
2023-12-13T19:39:32.146Z,20.02
2023-12-13T19:41:04.714Z,20.63
2023-12-13T19:42:37.127Z,19.43
2023-12-13T19:44:09.562Z,21.23
2023-12-13T19:45:42.049Z,19.38
2023-12-13T19:47:14.425Z,20.17
2023-12-13T19:48:47.119Z,17.25
2023-12-13T19:50:19.576Z,30.70
2023-12-13T19:51:52.051Z,26.40
2023-12-13T19:53:24.428Z,26.23
2023-12-13T19:54:56.685Z,32.60
2023-12-13T19:56:28.949Z,27.52
2023-12-13T19:58:01.206Z,21.27
2023-12-13T19:59:33.531Z,19.55
2023-12-13T20:01:06.019Z,20.40
2023-12-13T20:02:38.389Z,22.75
2023-12-13T20:04:10.907Z,22.35
2023-12-13T20:05:43.654Z,23.73
2023-12-13T20:07:16.121Z,29.33
2023-12-13T20:08:49.579Z,39.22
2023-12-13T20:10:21.896Z,34.28
2023-12-13T20:11:55.122Z,30.00
2023-12-13T20:13:27.417Z,28.70
2023-12-13T20:14:59.789Z,27.75
2023-12-13T20:16:32.307Z,29.42
2023-12-13T20:45:34.208Z,18.52
2023-12-13T20:47:06.753Z,16.20
2023-12-13T20:48:39.182Z,15.20
2023-12-13T20:50:13.025Z,17.30
2023-12-13T20:51:45.550Z,16.35
2023-12-13T20:53:17.791Z,16.58
2023-12-13T20:54:50.145Z,16.60
2023-12-13T20:56:29.037Z,17.23
2023-12-13T20:58:01.344Z,19.08
2023-12-13T20:59:35.228Z,19.40
2023-12-13T21:01:07.568Z,14.65
2023-12-13T21:02:40.942Z,26.38
2023-12-13T21:04:13.280Z,20.35
2023-12-13T21:05:47.394Z,30.17
2023-12-13T21:07:19.954Z,15.75
2023-12-13T21:08:52.982Z,27.67
2023-12-13T21:10:25.419Z,40.45
2023-12-13T21:12:00.686Z,36.00
2023-12-13T21:13:34.873Z,24.27
2023-12-13T21:15:08.309Z,23.52
2023-12-13T21:16:41.789Z,31.15
2023-12-13T21:18:14.246Z,30.10
2023-12-13T21:19:46.753Z,24.33
2023-12-13T21:21:19.202Z,19.42
2023-12-13T21:22:51.702Z,18.25
2023-12-13T21:24:23.996Z,17.92
2023-12-13T21:25:58.035Z,17.90
2023-12-13T21:27:30.515Z,16.88
2023-12-13T21:29:03.292Z,15.38
2023-12-13T21:30:35.685Z,15.43
2023-12-13T21:32:08.388Z,16.13
2023-12-13T21:33:40.873Z,15.70
2023-12-13T21:35:13.347Z,15.73
2023-12-13T21:36:46.484Z,16.33
2023-12-13T21:38:18.811Z,15.38
2023-12-13T21:39:51.120Z,17.45
2023-12-13T21:41:25.751Z,17.20
2023-12-13T21:42:58.138Z,16.98
2023-12-13T21:44:30.741Z,16.48
2023-12-13T21:46:02.916Z,17.08
2023-12-13T21:47:36.769Z,19.30
2023-12-13T21:49:09.074Z,19.60
2023-12-13T21:50:41.494Z,19.58
2023-12-13T21:52:13.679Z,17.70
2023-12-13T21:53:49.123Z,15.43
2023-12-13T21:55:22.360Z,17.17
2023-12-13T21:56:54.682Z,16.88
2023-12-13T21:58:26.973Z,17.98
2023-12-13T21:59:59.286Z,17.02
2023-12-13T22:01:31.484Z,18.05
2023-12-13T22:03:03.912Z,16.70
2023-12-13T22:04:38.180Z,16.60
2023-12-13T22:06:10.775Z,17.83
2023-12-13T22:07:42.983Z,19.40
2023-12-13T22:09:18.059Z,18.15
2023-12-13T22:10:51.985Z,18.63
2023-12-13T22:12:24.581Z,17.95
2023-12-13T22:13:56.940Z,16.75
2023-12-13T22:15:29.255Z,23.85
2023-12-13T22:17:01.624Z,23.25
2023-12-13T22:18:41.096Z,24.92
2023-12-13T22:20:19.407Z,22.50
2023-12-13T22:21:51.695Z,24.63
2023-12-13T22:23:24.292Z,25.13
2023-12-13T22:24:56.594Z,31.65
2023-12-13T22:26:28.847Z,31.75
2023-12-13T22:28:01.131Z,28.05
2023-12-13T22:29:33.813Z,31.58
2023-12-13T22:31:06.412Z,31.45
2023-12-13T22:32:38.874Z,30.27
2023-12-13T22:34:13.571Z,29.55
2023-12-13T22:35:45.894Z,27.55
2023-12-13T22:37:18.273Z,30.20
2023-12-13T22:38:50.531Z,25.63
2023-12-13T22:40:22.730Z,26.10
2023-12-13T22:41:55.034Z,21.75
2023-12-13T22:43:28.184Z,24.77
2023-12-13T22:45:00.404Z,23.58
2023-12-13T22:46:32.697Z,20.77
2023-12-13T22:48:06.984Z,21.92
2023-12-13T22:49:40.443Z,21.42
2023-12-13T22:52:45.842Z,19.02
2023-12-13T22:54:19.062Z,18.63
2023-12-13T22:55:51.693Z,19.48
2023-12-13T22:57:23.930Z,20.25
2023-12-13T22:58:56.727Z,17.88
2023-12-13T23:00:29.718Z,19.75
2023-12-13T23:02:03.571Z,18.85
2023-12-13T23:03:40.056Z,19.45
2023-12-13T23:05:12.357Z,21.48
2023-12-13T23:06:44.926Z,23.55
2023-12-13T23:08:17.626Z,23.33
2023-12-13T23:09:49.891Z,23.73
2023-12-13T23:11:22.186Z,23.23
2023-12-13T23:12:55.222Z,18.80
2023-12-13T23:14:27.522Z,17.88
2023-12-13T23:15:59.792Z,18.80
2023-12-13T23:17:32.182Z,20.60
2023-12-13T23:19:04.708Z,23.60
2023-12-13T23:20:37.171Z,21.40
2023-12-13T23:22:09.488Z,25.30
2023-12-13T23:23:41.685Z,27.33
2023-12-13T23:25:13.921Z,32.75
2023-12-13T23:26:46.238Z,34.75
2023-12-13T23:28:18.535Z,23.58
2023-12-13T23:29:50.769Z,19.88
2023-12-13T23:31:29.544Z,24.35
2023-12-13T23:33:06.508Z,19.85
2023-12-13T23:34:38.897Z,20.10
2023-12-13T23:36:11.557Z,28.38
2023-12-13T23:37:43.977Z,23.80
2023-12-13T23:39:16.264Z,19.00
2023-12-13T23:40:48.513Z,19.63
2023-12-13T23:42:20.899Z,26.33
2023-12-13T23:43:53.172Z,26.23
2023-12-13T23:45:25.441Z,25.05
2023-12-13T23:46:59.236Z,22.27
2023-12-13T23:48:31.568Z,21.00
2023-12-13T23:50:04.080Z,19.58
2023-12-13T23:51:36.525Z,21.80
2023-12-13T23:53:08.723Z,21.45
2023-12-13T23:54:42.109Z,22.52
2023-12-13T23:56:21.648Z,18.98
2023-12-13T23:57:53.903Z,22.40
2023-12-13T23:59:26.137Z,21.73
